Aérodrome :
LOGIN :

S'inscrire | Disclaimer

   EN    FR    IT 

 










Légende :    VFR   VFR Marginal   IFR   IFR Intensif   IFR Très Intensif
Visi : 
Plafond : 
>= 8 km
>= 3000ft
5 à 8 km
1000 à 3000 ft
1500m à 5 km
500 à 1000 ft
800 à 1500m
200 à 500 ft
< 800m
< 200 ft
Symboles :   Orages  Brouillard  Fortes neiges  Fortes précipitations  Vent > 20 kt
SIGMETs :   Divers  Orages  Givrage  Turbulence  Onde Orograph.  Cendres Volcan.







- Altitude de l'aérodrome : 289 ft
- Code IATA : ZAD


LDZD - Zadar

DERNIER METAR :
  • 240000Z 12004KT 080V160 CAVOK 22/19 Q1012

METARs EXPIRÉS :
  • 232330Z 14003KT CAVOK 22/18 Q1012
  • 232300Z VRB01KT CAVOK 22/18 Q1012
  • 232230Z VRB02KT CAVOK 22/18 Q1012
  • 232200Z VRB01KT CAVOK 22/18 Q1013
  • 232130Z 08003KT CAVOK 23/18 Q1013

TAF TAF LDZD
Valide du 24 à 00h jusqu'au 25 à 00h UTC


232325Z 2400/2424 VRB02KT CAVOK TX33/2413Z TN20/2403Z
BECMG 2404/2406 14006KT
BECMG 2409/2411 30010KT
PROB40
TEMPO 2415/2420 TSRA FEW040CB SCT045
BECMG 2421/2423 VRB02KT
Pas de NOTAMs connus pour ce terrain.



MET'MAP, la Météo Aéronautique d'un coup d'oeil ! - Copyright ORBIFLY Décembre 2007 - Disclaimer

ORBIFLY MET'MAP TEAM :

Programmation & Développement : Alexandra Zaïnal
Conception & Développement : Baudouin d'Aumeries
Co-Programmation & Développement : Marc-Olivier Méhu
Soutien technique & logistique : Manuel Goepfert

Contact : metmap@orbifly.com




SOURCES & CREDITS :

   NOAA